createdAt,value
2018-07-31T00:02:25.706Z,8.30
2018-07-31T00:04:58.153Z,8.38
2018-07-31T00:07:29.850Z,8.05
2018-07-31T00:10:01.906Z,8.10
2018-07-31T00:12:34.104Z,8.45
2018-07-31T00:15:09.658Z,8.08
2018-07-31T00:17:46.383Z,8.00
2018-07-31T00:20:18.489Z,7.90
2018-07-31T00:22:51.137Z,7.78
2018-07-31T00:25:22.579Z,7.95
2018-07-31T00:27:58.041Z,8.35
2018-07-31T00:30:31.671Z,8.20
2018-07-31T00:33:02.398Z,8.08
2018-07-31T00:35:34.982Z,8.08
2018-07-31T00:38:07.319Z,8.10
2018-07-31T00:40:40.851Z,7.95
2018-07-31T00:43:14.592Z,7.70
2018-07-31T00:45:46.584Z,7.67
2018-07-31T00:48:19.806Z,7.83
2018-07-31T00:50:50.706Z,7.92
2018-07-31T00:53:22.763Z,7.58
2018-07-31T00:55:53.979Z,8.33
2018-07-31T00:58:26.358Z,7.65
2018-07-31T01:00:58.506Z,8.15
2018-07-31T01:03:31.894Z,8.08
2018-07-31T01:06:03.431Z,7.80
2018-07-31T01:08:35.572Z,7.70
2018-07-31T01:11:07.824Z,7.33
2018-07-31T01:13:40.248Z,7.65
2018-07-31T01:16:14.413Z,7.62
2018-07-31T01:18:47.430Z,8.05
2018-07-31T01:21:19.620Z,8.20
2018-07-31T01:23:51.047Z,7.83
2018-07-31T01:26:23.807Z,8.33
2018-07-31T01:28:55.185Z,8.35
2018-07-31T01:31:29.016Z,9.13
2018-07-31T01:34:00.547Z,7.42
2018-07-31T01:36:34.615Z,7.55
2018-07-31T01:39:09.501Z,7.50
2018-07-31T01:41:40.719Z,7.70
2018-07-31T01:44:12.421Z,7.65
2018-07-31T01:46:49.676Z,7.58
2018-07-31T01:49:21.470Z,7.83
2018-07-31T01:51:55.001Z,7.45
2018-07-31T01:54:28.771Z,7.83
2018-07-31T01:57:00.913Z,7.60
2018-07-31T01:59:35.686Z,7.87
2018-07-31T02:02:08.013Z,7.50
2018-07-31T02:04:39.941Z,7.45
2018-07-31T02:07:11.698Z,7.45
2018-07-31T02:09:44.812Z,7.60
2018-07-31T02:12:17.096Z,7.33
2018-07-31T02:14:49.820Z,7.47
2018-07-31T02:17:20.426Z,7.55
2018-07-31T02:19:51.839Z,7.05
2018-07-31T02:22:24.200Z,7.60
2018-07-31T02:24:58.093Z,7.17
2018-07-31T02:27:29.523Z,7.33
2018-07-31T02:30:06.249Z,7.28
2018-07-31T02:32:39.000Z,7.17
2018-07-31T02:35:10.342Z,7.20
2018-07-31T02:37:42.208Z,7.08
2018-07-31T02:40:12.927Z,7.28
2018-07-31T02:42:43.851Z,7.08
2018-07-31T02:45:15.600Z,7.17
2018-07-31T02:47:46.357Z,7.10
2018-07-31T02:50:16.763Z,6.80
2018-07-31T02:52:48.257Z,6.83
2018-07-31T02:55:18.029Z,7.28
2018-07-31T02:57:48.754Z,7.10
2018-07-31T03:00:18.512Z,7.33
2018-07-31T03:02:49.264Z,6.33
2018-07-31T03:05:19.138Z,6.70
2018-07-31T03:07:49.903Z,6.62
2018-07-31T03:10:20.086Z,7.12
2018-07-31T03:12:50.330Z,7.12
2018-07-31T03:15:20.821Z,6.60
2018-07-31T03:17:51.532Z,6.80
2018-07-31T03:20:22.389Z,6.72
2018-07-31T03:22:55.899Z,6.58
2018-07-31T03:25:27.055Z,7.05
2018-07-31T03:27:58.667Z,6.70
2018-07-31T03:30:30.461Z,7.20
2018-07-31T03:33:02.034Z,6.70
2018-07-31T03:35:33.629Z,7.42
2018-07-31T03:38:04.792Z,6.60
2018-07-31T03:40:37.706Z,6.53
2018-07-31T03:43:08.329Z,6.87
2018-07-31T03:45:39.385Z,6.40
2018-07-31T03:48:10.415Z,6.83
2018-07-31T03:50:42.399Z,6.37
2018-07-31T03:53:13.471Z,6.42
2018-07-31T03:55:45.918Z,7.08
2018-07-31T03:58:17.930Z,6.05
2018-07-31T04:00:52.196Z,6.75
2018-07-31T04:03:28.514Z,6.50
2018-07-31T04:05:59.895Z,6.33
2018-07-31T04:08:29.989Z,6.12
2018-07-31T04:11:00.938Z,6.53
2018-07-31T04:13:31.877Z,6.55
2018-07-31T04:16:03.517Z,6.75
2018-07-31T04:18:34.282Z,6.35
2018-07-31T04:21:05.644Z,6.45
2018-07-31T04:23:36.997Z,6.40
2018-07-31T04:26:08.461Z,6.50
2018-07-31T04:28:39.870Z,6.42
2018-07-31T04:31:13.368Z,6.90
2018-07-31T04:33:47.494Z,6.35
2018-07-31T04:36:18.949Z,6.50
2018-07-31T04:38:50.148Z,6.80
2018-07-31T04:41:21.987Z,6.62
2018-07-31T04:43:55.022Z,6.28
2018-07-31T04:46:29.717Z,6.90
2018-07-31T04:49:06.320Z,6.25
2018-07-31T04:51:37.984Z,6.50
2018-07-31T04:54:10.770Z,6.45
2018-07-31T04:56:41.512Z,6.20
2018-07-31T04:59:16.232Z,6.50
2018-07-31T05:01:47.237Z,6.85
2018-07-31T05:04:18.341Z,6.40
2018-07-31T05:06:52.242Z,6.55
2018-07-31T05:09:23.142Z,6.75
2018-07-31T05:11:54.028Z,6.50
2018-07-31T05:14:25.051Z,6.12
2018-07-31T05:16:57.360Z,6.70
2018-07-31T05:19:27.900Z,6.70
2018-07-31T05:22:01.399Z,6.45
2018-07-31T05:24:31.885Z,6.70
2018-07-31T05:27:02.525Z,6.65
2018-07-31T05:29:34.378Z,6.35
2018-07-31T05:32:05.845Z,6.20
2018-07-31T05:34:37.738Z,7.20
2018-07-31T05:37:08.408Z,7.20
2018-07-31T05:39:39.532Z,6.60
2018-07-31T05:42:11.011Z,7.30
2018-07-31T05:44:46.786Z,6.97
2018-07-31T05:47:20.389Z,6.58
2018-07-31T05:49:52.115Z,6.40
2018-07-31T05:52:25.196Z,6.80
2018-07-31T05:55:01.030Z,6.60
2018-07-31T05:57:31.387Z,6.92
2018-07-31T06:00:04.323Z,6.75
2018-07-31T06:02:39.394Z,6.60
2018-07-31T06:05:09.665Z,6.78
2018-07-31T06:07:40.287Z,7.08
2018-07-31T06:15:14.388Z,6.17
2018-07-31T06:17:46.382Z,6.25
2018-07-31T06:20:18.565Z,6.40
2018-07-31T06:22:51.043Z,6.70
2018-07-31T06:25:22.606Z,6.55
2018-07-31T06:27:55.789Z,7.42
2018-07-31T06:30:27.604Z,7.30
2018-07-31T06:32:58.542Z,7.47
2018-07-31T06:35:30.191Z,6.75
2018-07-31T06:38:02.501Z,7.30
2018-07-31T06:40:33.041Z,7.15
2018-07-31T06:43:04.599Z,7.60
2018-07-31T06:45:41.174Z,6.83
2018-07-31T06:48:13.441Z,8.03
2018-07-31T06:50:45.752Z,7.22
2018-07-31T06:53:20.266Z,6.60
2018-07-31T06:55:51.417Z,6.67
2018-07-31T06:58:24.417Z,6.72
2018-07-31T07:00:56.703Z,7.08
2018-07-31T07:03:27.939Z,7.33
2018-07-31T07:05:58.843Z,7.30
2018-07-31T07:08:30.089Z,7.03
2018-07-31T07:11:00.718Z,7.40
2018-07-31T07:13:31.847Z,7.30
2018-07-31T07:16:04.237Z,7.10
2018-07-31T07:18:34.939Z,7.60
2018-07-31T07:21:06.127Z,7.47
2018-07-31T07:23:48.309Z,7.37
2018-07-31T07:26:21.610Z,7.03
2018-07-31T07:28:54.441Z,7.70
2018-07-31T07:31:26.071Z,8.10
2018-07-31T07:33:59.900Z,7.65
2018-07-31T07:36:35.713Z,7.10
2018-07-31T07:39:18.068Z,6.70
2018-07-31T07:41:59.856Z,7.03
2018-07-31T07:44:36.742Z,6.97
2018-07-31T07:47:10.221Z,7.22
2018-07-31T07:49:45.275Z,8.38
2018-07-31T07:52:19.374Z,8.23
2018-07-31T07:54:51.896Z,7.40
2018-07-31T07:57:28.554Z,7.47
2018-07-31T08:00:00.074Z,7.20
2018-07-31T08:02:31.414Z,7.65
2018-07-31T08:05:02.413Z,8.88
2018-07-31T08:07:35.038Z,7.80
2018-07-31T08:10:06.426Z,7.78
2018-07-31T08:12:37.229Z,7.50
2018-07-31T08:15:07.827Z,7.28
2018-07-31T08:17:38.955Z,7.78
2018-07-31T08:20:09.835Z,7.53
2018-07-31T08:22:41.131Z,7.35
2018-07-31T08:25:11.671Z,8.28
2018-07-31T08:27:42.809Z,8.00
2018-07-31T08:30:13.388Z,8.95
2018-07-31T08:32:49.347Z,7.97
2018-07-31T08:35:26.224Z,8.10
2018-07-31T08:37:58.448Z,8.43
2018-07-31T08:40:30.500Z,8.18
2018-07-31T08:43:00.723Z,8.78
2018-07-31T08:45:31.557Z,43.58
2018-07-31T08:48:10.617Z,9.20
2018-07-31T08:50:47.649Z,8.13
2018-07-31T08:53:22.836Z,8.65
2018-07-31T08:56:13.220Z,8.23
2018-07-31T08:58:49.062Z,8.50
2018-07-31T09:01:21.350Z,8.40
2018-07-31T09:03:54.325Z,8.80
2018-07-31T09:06:26.220Z,9.23
2018-07-31T09:09:01.556Z,8.88
2018-07-31T09:11:45.333Z,8.80
2018-07-31T09:14:19.589Z,9.25
2018-07-31T09:16:58.792Z,8.25
2018-07-31T09:19:30.418Z,9.53
2018-07-31T09:22:04.648Z,8.93
2018-07-31T09:24:36.750Z,8.63
2018-07-31T09:27:14.769Z,9.95
2018-07-31T09:29:47.341Z,9.18
2018-07-31T09:32:27.968Z,8.88
2018-07-31T09:35:22.029Z,8.78
2018-07-31T09:37:58.542Z,8.88
2018-07-31T09:40:31.452Z,8.80
2018-07-31T09:43:04.302Z,8.78
2018-07-31T09:45:35.276Z,9.38
2018-07-31T09:48:08.601Z,8.58
2018-07-31T09:50:39.970Z,8.68
2018-07-31T09:53:11.139Z,8.88
2018-07-31T09:55:43.350Z,9.65
2018-07-31T09:58:16.554Z,8.95
2018-07-31T10:01:22.688Z,9.13
2018-07-31T10:03:54.412Z,9.30
2018-07-31T10:06:26.560Z,9.23
2018-07-31T10:08:56.394Z,9.30
2018-07-31T10:11:26.794Z,10.03
2018-07-31T10:13:58.354Z,9.28
2018-07-31T10:16:28.721Z,9.45
2018-07-31T10:18:59.216Z,9.03
2018-07-31T10:21:35.522Z,8.90
2018-07-31T10:24:08.796Z,8.53
2018-07-31T10:26:39.756Z,9.13
2018-07-31T10:29:10.840Z,9.40
2018-07-31T10:31:41.313Z,8.83
2018-07-31T10:34:11.594Z,9.50
2018-07-31T10:36:42.934Z,9.30
2018-07-31T10:39:16.442Z,9.30
2018-07-31T10:41:49.759Z,9.23
2018-07-31T10:44:20.330Z,8.40
2018-07-31T10:46:51.824Z,9.48
2018-07-31T10:49:31.618Z,8.83
2018-07-31T10:57:55.572Z,10.08
2018-07-31T11:00:39.079Z,10.82
2018-07-31T11:03:17.837Z,11.22
2018-07-31T11:05:51.760Z,12.50
2018-07-31T11:11:35.207Z,10.53
2018-07-31T11:14:11.315Z,10.80
2018-07-31T11:16:51.326Z,9.55
2018-07-31T11:20:30.138Z,10.20
2018-07-31T11:23:24.940Z,10.05
2018-07-31T11:26:17.641Z,9.10
2018-07-31T11:32:05.508Z,9.33
2018-07-31T11:34:45.425Z,11.25
2018-07-31T11:40:14.092Z,8.45
2018-07-31T11:42:58.269Z,8.58
2018-07-31T11:45:34.353Z,7.42
2018-07-31T11:48:07.894Z,9.40
2018-07-31T11:50:41.074Z,8.53
2018-07-31T11:53:20.114Z,7.53
2018-07-31T11:55:51.833Z,8.60
2018-07-31T11:58:24.592Z,8.65
2018-07-31T12:00:55.269Z,8.23
2018-07-31T12:03:28.304Z,8.80
2018-07-31T12:05:58.883Z,8.65
2018-07-31T12:08:35.318Z,8.10
2018-07-31T12:11:06.753Z,7.70
2018-07-31T12:13:39.796Z,7.15
2018-07-31T12:16:11.495Z,7.97
2018-07-31T12:18:42.228Z,8.45
2018-07-31T12:21:17.128Z,8.25
2018-07-31T12:23:50.154Z,8.68
2018-07-31T12:26:28.940Z,8.15
2018-07-31T12:29:07.129Z,9.15
2018-07-31T12:31:50.562Z,8.85
2018-07-31T12:34:21.037Z,8.50
2018-07-31T12:36:51.660Z,8.78
2018-07-31T12:39:24.439Z,7.92
2018-07-31T12:41:58.423Z,8.23
2018-07-31T12:44:29.684Z,7.90
2018-07-31T12:47:00.112Z,8.08
2018-07-31T12:49:30.901Z,8.48
2018-07-31T12:52:02.545Z,8.45
2018-07-31T12:54:33.550Z,8.48
2018-07-31T12:57:06.745Z,8.98
2018-07-31T12:59:42.400Z,8.58
2018-07-31T13:02:16.142Z,8.23
2018-07-31T13:04:50.904Z,8.83
2018-07-31T13:07:23.765Z,8.60
2018-07-31T13:09:54.100Z,8.68
2018-07-31T13:12:29.130Z,8.85
2018-07-31T13:15:01.140Z,8.13
2018-07-31T13:20:13.138Z,8.08
2018-07-31T13:25:22.054Z,5.97
2018-07-31T13:27:58.315Z,8.10
2018-07-31T13:30:30.775Z,6.55
2018-07-31T13:33:06.776Z,7.67
2018-07-31T13:35:45.921Z,7.65
2018-07-31T13:38:22.397Z,7.60
2018-07-31T13:40:54.139Z,8.05
2018-07-31T13:46:47.135Z,6.80
2018-07-31T13:49:18.380Z,6.40
2018-07-31T13:51:49.553Z,7.10
2018-07-31T13:54:21.553Z,7.55
2018-07-31T13:56:52.068Z,7.08
2018-07-31T13:59:27.359Z,7.20
2018-07-31T14:01:58.485Z,7.50
2018-07-31T14:04:28.615Z,7.67
2018-07-31T14:06:59.631Z,6.92
2018-07-31T14:09:35.194Z,7.78
2018-07-31T14:12:08.003Z,7.50
2018-07-31T14:14:43.759Z,6.60
2018-07-31T14:17:15.834Z,8.05
2018-07-31T14:19:52.762Z,5.62
2018-07-31T14:22:55.716Z,6.95
2018-07-31T14:25:30.152Z,7.08
2018-07-31T14:28:12.213Z,6.28
2018-07-31T14:30:53.433Z,7.28
2018-07-31T14:36:20.852Z,7.28
2018-07-31T14:44:38.337Z,7.92
2018-07-31T14:47:26.372Z,7.70
2018-07-31T14:50:05.248Z,8.88
2018-07-31T14:52:47.382Z,8.55
2018-07-31T14:55:27.033Z,8.30
2018-07-31T14:58:12.004Z,8.83
2018-07-31T15:00:44.937Z,9.18
2018-07-31T15:03:23.095Z,8.80
2018-07-31T15:05:58.640Z,10.20
2018-07-31T15:08:40.708Z,9.58
2018-07-31T15:11:15.235Z,8.25
2018-07-31T15:13:46.464Z,9.08
2018-07-31T15:16:24.252Z,8.30
2018-07-31T15:18:59.789Z,8.33
2018-07-31T15:21:33.552Z,8.80
2018-07-31T15:24:08.948Z,7.28
2018-07-31T15:26:44.191Z,8.00
2018-07-31T15:29:18.367Z,8.48
2018-07-31T15:31:56.317Z,9.00
2018-07-31T15:34:33.767Z,7.22
2018-07-31T15:37:07.588Z,9.48
2018-07-31T15:39:40.493Z,8.40
2018-07-31T15:42:20.389Z,6.05
2018-07-31T15:47:05.488Z,10.18
2018-07-31T15:49:42.053Z,10.43
2018-07-31T15:52:18.119Z,10.25
2018-07-31T15:54:52.735Z,9.48
2018-07-31T15:57:32.570Z,9.53
2018-07-31T16:00:07.539Z,7.50
2018-07-31T16:02:41.378Z,6.37
2018-07-31T16:05:16.199Z,6.40
2018-07-31T16:07:48.908Z,5.28
2018-07-31T16:10:20.082Z,5.55
2018-07-31T16:12:52.847Z,4.97
2018-07-31T16:15:25.021Z,3.72
2018-07-31T16:17:56.470Z,5.20
2018-07-31T16:20:35.546Z,3.45
2018-07-31T16:23:14.121Z,4.62
2018-07-31T16:25:50.974Z,3.15
2018-07-31T16:28:27.469Z,4.67
2018-07-31T16:30:57.924Z,4.10
2018-07-31T16:33:30.190Z,3.52
2018-07-31T16:36:02.866Z,3.50
2018-07-31T16:38:37.398Z,3.00
2018-07-31T16:41:10.661Z,2.65
2018-07-31T16:43:42.060Z,3.50
2018-07-31T16:46:13.764Z,3.33
2018-07-31T16:48:43.792Z,5.62
2018-07-31T16:51:15.840Z,4.28
2018-07-31T16:53:46.569Z,3.35
2018-07-31T16:56:17.937Z,3.70
2018-07-31T16:58:54.224Z,3.22
2018-07-31T17:01:27.787Z,3.10
2018-07-31T17:04:01.624Z,2.80
2018-07-31T17:06:38.587Z,2.87
2018-07-31T17:09:13.630Z,3.33
2018-07-31T17:11:50.830Z,4.97
2018-07-31T17:14:21.811Z,2.87
2018-07-31T17:16:56.174Z,4.03
2018-07-31T17:19:32.899Z,3.80
2018-07-31T17:22:04.317Z,4.20
2018-07-31T17:27:36.508Z,3.92
2018-07-31T17:33:14.836Z,3.45
2018-07-31T17:36:05.254Z,3.72
2018-07-31T17:38:58.225Z,3.35
2018-07-31T17:41:30.933Z,3.40
2018-07-31T17:44:12.857Z,2.20
2018-07-31T17:47:01.989Z,2.60
2018-07-31T17:55:42.428Z,2.20
2018-07-31T17:58:13.756Z,2.40
2018-07-31T18:00:46.551Z,2.85
2018-07-31T18:03:19.126Z,2.90
2018-07-31T18:05:51.172Z,2.45
2018-07-31T18:17:51.616Z,2.80
2018-07-31T18:20:34.877Z,3.15
2018-07-31T18:23:07.944Z,2.83
2018-07-31T18:25:38.634Z,3.05
2018-07-31T18:28:09.561Z,3.22
2018-07-31T18:30:40.425Z,3.47
2018-07-31T18:33:11.593Z,2.45
2018-07-31T18:35:42.358Z,3.58
2018-07-31T18:38:14.675Z,3.72
2018-07-31T18:40:51.301Z,3.60
2018-07-31T18:43:23.163Z,3.12
2018-07-31T18:45:54.964Z,4.00
2018-07-31T18:48:25.750Z,3.12
2018-07-31T18:50:56.432Z,3.33
2018-07-31T18:53:28.559Z,3.50
2018-07-31T18:56:00.145Z,3.67
2018-07-31T18:58:40.977Z,3.60
2018-07-31T19:01:13.336Z,3.20
2018-07-31T19:03:45.348Z,3.58
2018-07-31T19:06:17.422Z,4.00
2018-07-31T19:08:48.310Z,3.45
2018-07-31T19:11:35.507Z,3.55
2018-07-31T19:14:07.532Z,3.72
2018-07-31T19:16:37.963Z,3.30
2018-07-31T19:19:08.599Z,2.92
2018-07-31T19:21:40.346Z,3.20
2018-07-31T19:24:13.937Z,3.37
2018-07-31T19:26:47.170Z,3.62
2018-07-31T19:32:00.114Z,3.70
2018-07-31T19:34:31.037Z,3.70
2018-07-31T19:37:02.179Z,3.77
2018-07-31T19:39:33.739Z,3.80
2018-07-31T19:42:09.196Z,3.72
2018-07-31T19:44:46.090Z,3.60
2018-07-31T19:47:18.707Z,3.80
2018-07-31T19:49:49.857Z,4.03
2018-07-31T19:52:20.516Z,3.95
2018-07-31T19:54:55.694Z,3.80
2018-07-31T19:57:27.826Z,4.00
2018-07-31T20:02:39.187Z,4.20
2018-07-31T20:05:11.476Z,4.08
2018-07-31T20:07:53.496Z,3.80
2018-07-31T20:10:26.396Z,4.00
2018-07-31T20:15:34.611Z,3.70
2018-07-31T20:18:08.515Z,3.40
2018-07-31T20:20:39.118Z,3.75
2018-07-31T20:23:12.700Z,3.33
2018-07-31T20:25:46.756Z,3.42
2018-07-31T20:28:33.113Z,3.08
2018-07-31T20:31:16.367Z,3.10
2018-07-31T20:33:48.936Z,3.05
2018-07-31T20:36:24.374Z,3.05
2018-07-31T20:39:02.560Z,3.20
2018-07-31T20:41:40.428Z,2.72
2018-07-31T20:44:26.380Z,3.10
2018-07-31T20:46:59.894Z,2.62
2018-07-31T20:49:33.732Z,3.47
2018-07-31T20:52:04.947Z,2.67
2018-07-31T20:54:36.455Z,2.70
2018-07-31T20:57:07.698Z,2.47
2018-07-31T20:59:43.867Z,2.70
2018-07-31T21:02:15.527Z,2.77
2018-07-31T21:04:46.787Z,2.60
2018-07-31T21:07:20.890Z,2.85
2018-07-31T21:09:51.944Z,2.70
2018-07-31T21:12:22.654Z,2.45
2018-07-31T21:14:53.699Z,2.87
2018-07-31T21:17:28.325Z,2.60
2018-07-31T21:19:59.265Z,2.75
2018-07-31T21:22:32.265Z,3.12
2018-07-31T21:25:04.197Z,2.67
2018-07-31T21:27:35.018Z,2.85
2018-07-31T21:30:07.955Z,2.70
2018-07-31T21:32:38.340Z,3.30
2018-07-31T21:35:08.712Z,3.00
2018-07-31T21:37:42.284Z,2.92
2018-07-31T21:40:13.251Z,2.87
2018-07-31T21:42:43.663Z,2.80
2018-07-31T21:45:14.598Z,2.77
2018-07-31T21:47:44.924Z,2.67
2018-07-31T21:50:15.286Z,2.62
2018-07-31T21:52:45.580Z,2.58
2018-07-31T21:55:15.949Z,3.10
2018-07-31T21:57:48.676Z,3.12
2018-07-31T22:00:20.273Z,2.85
2018-07-31T22:02:50.926Z,2.95
2018-07-31T22:05:23.845Z,2.65
2018-07-31T22:07:54.264Z,2.12
2018-07-31T22:16:28.238Z,2.72
2018-07-31T22:30:47.538Z,3.00
2018-07-31T22:36:23.688Z,3.12
2018-07-31T22:38:58.071Z,3.00
2018-07-31T22:53:04.873Z,3.12
2018-07-31T23:15:42.882Z,20.37
2018-07-31T23:18:13.150Z,2.85
2018-07-31T23:23:50.440Z,3.65
2018-07-31T23:47:01.585Z,3.08
2018-07-31T23:49:51.448Z,3.00
2018-07-31T23:55:27.987Z,2.98
